createdAt,value
2023-02-01T05:41:31.717Z,85.71
2023-02-01T05:44:34.439Z,85.71
2023-02-01T05:47:37.178Z,86.01
2023-02-01T05:50:40.780Z,86.18
2023-02-01T05:53:43.825Z,85.23
2023-02-01T05:56:47.751Z,85.10
2023-02-01T05:59:50.858Z,84.96
2023-02-01T06:02:53.941Z,85.08
2023-02-01T06:05:56.763Z,85.06
2023-02-01T06:08:59.721Z,85.49
2023-02-01T06:12:02.938Z,86.08
2023-02-01T06:15:06.720Z,85.72
2023-02-01T06:18:09.521Z,85.94
2023-02-01T06:21:12.182Z,87.18
2023-02-01T06:24:15.399Z,86.87
2023-02-01T06:27:18.563Z,87.59
2023-02-01T06:30:21.544Z,86.39
2023-02-01T06:33:25.190Z,86.79
2023-02-01T06:36:28.091Z,86.72
2023-02-01T06:39:30.879Z,85.73
2023-02-01T06:42:33.594Z,86.53
2023-02-01T06:45:36.247Z,86.64
2023-02-01T06:48:38.814Z,86.36
2023-02-01T06:51:41.412Z,87.14
2023-02-01T06:54:45.666Z,86.87
2023-02-01T06:57:51.307Z,86.55
2023-02-01T07:00:55.528Z,86.48
2023-02-01T07:03:58.211Z,86.07
2023-02-01T07:07:01.336Z,85.72
2023-02-01T07:10:04.048Z,86.70
2023-02-01T07:13:06.612Z,85.24
2023-02-01T07:16:13.950Z,85.46
2023-02-01T07:19:17.004Z,85.91
2023-02-01T07:22:20.107Z,85.34
2023-02-01T07:25:22.938Z,85.34
2023-02-01T07:28:26.190Z,83.80
2023-02-01T07:31:30.251Z,83.13
2023-02-01T07:34:34.228Z,82.99
2023-02-01T07:37:37.109Z,83.07
2023-02-01T07:40:40.171Z,83.02
2023-02-01T07:43:42.766Z,82.48
2023-02-01T07:46:45.518Z,82.27
2023-02-01T07:49:48.261Z,82.29
2023-02-01T07:52:51.243Z,82.31
2023-02-01T07:55:54.864Z,82.19
2023-02-01T07:58:57.452Z,82.00
2023-02-01T08:02:00.143Z,80.39
2023-02-01T08:05:02.758Z,80.33
2023-02-01T08:08:05.711Z,79.93
2023-02-01T08:11:08.243Z,78.79
2023-02-01T08:14:11.167Z,78.51
2023-02-01T08:17:14.390Z,78.21
2023-02-01T08:20:17.747Z,77.54
2023-02-01T08:23:21.211Z,77.24
2023-02-01T08:26:25.316Z,75.65
2023-02-01T08:29:28.029Z,75.60
2023-02-01T08:32:30.600Z,76.04
2023-02-01T08:35:42.793Z,76.24
2023-02-01T08:38:46.658Z,74.69
2023-02-01T08:42:09.159Z,75.31
2023-02-01T08:45:11.820Z,74.86
2023-02-01T08:48:33.154Z,74.51
2023-02-01T08:51:38.199Z,74.62
2023-02-01T08:54:42.190Z,74.41
2023-02-01T08:57:44.818Z,74.44
2023-02-01T09:00:49.150Z,74.10
2023-02-01T09:03:51.698Z,74.68
2023-02-01T09:06:56.656Z,73.68
2023-02-01T09:10:02.416Z,72.76
2023-02-01T09:13:05.307Z,74.03
2023-02-01T09:16:08.006Z,73.51
2023-02-01T09:19:27.246Z,73.75
2023-02-01T09:22:29.997Z,73.34
2023-02-01T09:25:32.559Z,72.38
2023-02-01T09:28:35.063Z,73.29
2023-02-01T09:31:39.964Z,73.40
2023-02-01T09:34:42.711Z,72.38
2023-02-01T09:37:45.359Z,74.05
2023-02-01T09:40:48.051Z,73.18
2023-02-01T09:44:19.810Z,72.33
2023-02-01T09:47:23.708Z,72.66
2023-02-01T09:50:38.478Z,71.45
2023-02-01T09:53:43.403Z,71.84
2023-02-01T09:57:23.730Z,72.24
2023-02-01T10:00:36.472Z,70.71
2023-02-01T10:03:40.680Z,71.81
2023-02-01T10:06:56.292Z,72.83
2023-02-01T10:10:06.374Z,71.13
2023-02-01T10:13:27.823Z,70.72
2023-02-01T10:16:38.416Z,71.29
2023-02-01T10:20:29.214Z,71.42
2023-02-01T10:24:16.830Z,72.10
2023-02-01T10:27:44.004Z,73.27
2023-02-01T10:30:47.841Z,73.35
2023-02-01T10:34:07.522Z,74.45
2023-02-01T10:37:22.654Z,74.03
2023-02-01T10:40:27.029Z,73.10
2023-02-01T10:43:29.822Z,73.31
2023-02-01T10:46:33.127Z,73.48
2023-02-01T10:49:58.543Z,72.81
2023-02-01T10:53:23.201Z,73.99
2023-02-01T10:56:27.187Z,73.50
2023-02-01T10:59:30.494Z,74.66
2023-02-01T11:02:34.472Z,74.16
2023-02-01T11:05:46.806Z,73.85
2023-02-01T11:08:51.253Z,74.29
2023-02-01T11:11:58.327Z,74.21
2023-02-01T11:15:13.661Z,73.08
2023-02-01T11:18:18.625Z,74.28
2023-02-01T11:21:21.220Z,74.68
2023-02-01T11:24:32.861Z,74.90
2023-02-01T11:27:40.290Z,75.45
2023-02-01T11:30:46.957Z,74.87
2023-02-01T11:33:55.339Z,75.85
2023-02-01T11:37:02.535Z,75.88
2023-02-01T11:40:17.510Z,76.17
2023-02-01T11:43:28.407Z,77.12
2023-02-01T11:46:35.347Z,76.48
2023-02-01T11:49:40.372Z,76.77
2023-02-01T11:53:09.093Z,76.94
2023-02-01T11:56:21.539Z,77.04
2023-02-01T11:59:56.308Z,76.92
2023-02-01T12:03:06.745Z,77.21
2023-02-01T12:06:58.293Z,78.74
2023-02-01T12:10:40.476Z,80.30
2023-02-01T12:13:53.570Z,82.50
2023-02-01T12:17:20.509Z,84.15
2023-02-01T12:20:27.902Z,85.97
2023-02-01T12:23:50.538Z,86.22
2023-02-01T12:27:17.884Z,86.06
2023-02-01T12:30:27.130Z,86.36
2023-02-01T12:33:48.527Z,86.64
2023-02-01T12:36:53.891Z,86.08
2023-02-01T12:40:04.209Z,86.53
2023-02-01T12:43:22.680Z,87.94
2023-02-01T12:46:30.548Z,89.77
2023-02-01T12:49:45.771Z,91.95
2023-02-01T12:52:52.711Z,94.70
2023-02-01T12:56:00.470Z,97.07
2023-02-01T12:59:05.710Z,99.62
2023-02-01T13:02:28.383Z,100.00
2023-02-01T13:05:46.495Z,100.00
2023-02-01T13:09:04.725Z,100.00
2023-02-01T13:12:41.588Z,100.00
2023-02-01T13:15:47.752Z,100.00
2023-02-01T13:18:51.019Z,100.00
2023-02-01T13:22:00.623Z,100.00
2023-02-01T13:25:06.024Z,100.00
2023-02-01T13:28:13.207Z,100.00
2023-02-01T13:31:40.709Z,100.00
2023-02-01T13:35:13.167Z,100.00
2023-02-01T13:38:32.381Z,100.00
2023-02-01T13:41:57.955Z,100.00
2023-02-01T13:45:14.629Z,100.00
2023-02-01T13:48:39.718Z,100.00
2023-02-01T13:51:43.849Z,100.00
2023-02-01T13:54:46.397Z,100.00
2023-02-01T13:57:50.514Z,100.00
2023-02-01T14:00:53.211Z,100.00
2023-02-01T14:04:03.499Z,100.00
2023-02-01T14:07:20.168Z,100.00
2023-02-01T14:10:58.009Z,100.00
2023-02-01T14:14:28.059Z,100.00
2023-02-01T14:17:31.577Z,100.00
2023-02-01T14:20:46.510Z,100.00
2023-02-01T14:24:02.343Z,100.00
2023-02-01T14:27:14.470Z,100.00
2023-02-01T14:30:18.146Z,100.00
2023-02-01T14:33:25.325Z,100.00
2023-02-01T14:36:27.941Z,100.00
2023-02-01T14:39:34.546Z,100.00
2023-02-01T14:42:43.273Z,100.00
2023-02-01T14:45:51.266Z,100.00
2023-02-01T14:48:53.960Z,100.00
2023-02-01T14:51:57.294Z,100.00
2023-02-01T14:55:03.302Z,100.00
2023-02-01T14:58:17.848Z,100.00
2023-02-01T15:01:31.647Z,100.00
2023-02-01T15:04:43.210Z,100.00
2023-02-01T15:07:45.754Z,100.00
2023-02-01T15:10:49.452Z,100.00
2023-02-01T15:13:55.040Z,100.00
2023-02-01T15:16:58.495Z,100.00
2023-02-01T15:20:17.104Z,100.00
2023-02-01T15:23:21.556Z,100.00
2023-02-01T15:26:31.892Z,100.00
2023-02-01T15:29:35.184Z,100.00
2023-02-01T15:32:40.295Z,100.00
2023-02-01T15:35:47.775Z,100.00
2023-02-01T15:38:50.519Z,100.00
2023-02-01T15:42:02.001Z,100.00
2023-02-01T15:45:04.860Z,100.00
2023-02-01T15:48:12.855Z,100.00
2023-02-01T15:51:20.661Z,100.00
2023-02-01T15:54:50.211Z,100.00
2023-02-01T15:57:52.866Z,100.00
2023-02-01T16:00:58.537Z,100.00
2023-02-01T16:04:24.243Z,100.00
2023-02-01T16:07:28.700Z,100.00
2023-02-01T16:10:31.462Z,100.00
2023-02-01T16:13:34.005Z,100.00
2023-02-01T16:16:37.245Z,100.00
2023-02-01T16:19:39.784Z,100.00
